Disclaimer

Please do not use the information listed here in-flight or in-navigation, as they are not provided to us by the airports but are provided by volunteers, so they might be outdated.

Search


Regions


Airport information page

Radio informations:
Common traffic adv. frequency (CTAF) - 122.8 MHz

Airport informations:
Latitude: 20° 30' 15.39" N
Longitude: 045° 11' 58.40" E
Elevation: 2062 feet - 628 meters
Operating hours: 24 hour operations
Operating agency: Civil government, landing fees and diplomatic clearance may be required
Timezone: UTC+3
Fuel: N/A

Runway information:
10/28 - 10007 x 147 feet< - >3050 x 45 meters

Recent METARs:
OEWD 180800Z 10016KT CAVOK 24/13 Q1020 NOSIG
OEWD 180900Z 09014KT CAVOK 26/13 Q1019 NOSIG
OEWD 180900Z 09014KT CAVOK 26/13 Q1019 NOSIG

Airport on the map: